sensor_id;sensor_type;location;lat;lon;timestamp;P1;durP1;ratioP1;P2;durP2;ratioP2
59145;SDS011;44928;53.074;6.646;2023-07-29T00:01:02;8.40;;;4.50;;
59145;SDS011;44928;53.074;6.646;2023-07-29T00:03:27;9.60;;;4.57;;
59145;SDS011;44928;53.074;6.646;2023-07-29T00:05:55;8.88;;;4.18;;
59145;SDS011;44928;53.074;6.646;2023-07-29T00:08:21;10.55;;;4.90;;
59145;SDS011;44928;53.074;6.646;2023-07-29T00:10:47;10.85;;;5.15;;
59145;SDS011;44928;53.074;6.646;2023-07-29T00:13:13;8.25;;;4.53;;
59145;SDS011;44928;53.074;6.646;2023-07-29T00:15:38;9.10;;;4.95;;
59145;SDS011;44928;53.074;6.646;2023-07-29T00:18:04;11.85;;;4.82;;
59145;SDS011;44928;53.074;6.646;2023-07-29T00:20:30;12.20;;;5.90;;
59145;SDS011;44928;53.074;6.646;2023-07-29T00:22:56;9.25;;;5.60;;
59145;SDS011;44928;53.074;6.646;2023-07-29T00:25:23;10.20;;;6.50;;
59145;SDS011;44928;53.074;6.646;2023-07-29T00:27:49;11.13;;;5.65;;
59145;SDS011;44928;53.074;6.646;2023-07-29T00:30:15;10.57;;;6.30;;
59145;SDS011;44928;53.074;6.646;2023-07-29T00:32:41;8.82;;;5.72;;
59145;SDS011;44928;53.074;6.646;2023-07-29T00:35:07;11.75;;;6.75;;
59145;SDS011;44928;53.074;6.646;2023-07-29T00:37:33;11.07;;;6.30;;
59145;SDS011;44928;53.074;6.646;2023-07-29T00:39:59;9.95;;;5.93;;
59145;SDS011;44928;53.074;6.646;2023-07-29T00:42:24;10.52;;;6.18;;
59145;SDS011;44928;53.074;6.646;2023-07-29T00:44:50;10.50;;;5.90;;
59145;SDS011;44928;53.074;6.646;2023-07-29T00:47:16;10.38;;;6.40;;
59145;SDS011;44928;53.074;6.646;2023-07-29T00:49:43;11.40;;;6.43;;
59145;SDS011;44928;53.074;6.646;2023-07-29T00:52:10;10.80;;;6.65;;
59145;SDS011;44928;53.074;6.646;2023-07-29T00:54:40;10.65;;;6.85;;
59145;SDS011;44928;53.074;6.646;2023-07-29T00:57:08;11.50;;;6.95;;
59145;SDS011;44928;53.074;6.646;2023-07-29T00:59:35;11.45;;;7.75;;
59145;SDS011;44928;53.074;6.646;2023-07-29T01:02:01;10.75;;;6.82;;
59145;SDS011;44928;53.074;6.646;2023-07-29T01:04:28;10.70;;;7.32;;
59145;SDS011;44928;53.074;6.646;2023-07-29T01:06:58;12.15;;;7.30;;
59145;SDS011;44928;53.074;6.646;2023-07-29T01:09:44;12.68;;;7.20;;
59145;SDS011;44928;53.074;6.646;2023-07-29T01:15:27;12.77;;;8.02;;
59145;SDS011;44928;53.074;6.646;2023-07-29T01:18:08;12.18;;;8.25;;
59145;SDS011;44928;53.074;6.646;2023-07-29T01:20:41;10.65;;;7.15;;
59145;SDS011;44928;53.074;6.646;2023-07-29T01:23:09;10.73;;;7.72;;
59145;SDS011;44928;53.074;6.646;2023-07-29T01:25:35;11.15;;;7.55;;
59145;SDS011;44928;53.074;6.646;2023-07-29T01:28:00;12.63;;;7.95;;
59145;SDS011;44928;53.074;6.646;2023-07-29T01:30:29;12.27;;;7.70;;
59145;SDS011;44928;53.074;6.646;2023-07-29T01:35:48;11.20;;;7.35;;
59145;SDS011;44928;53.074;6.646;2023-07-29T01:41:19;10.15;;;6.72;;
59145;SDS011;44928;53.074;6.646;2023-07-29T01:43:46;12.55;;;6.85;;
59145;SDS011;44928;53.074;6.646;2023-07-29T01:46:13;11.18;;;6.95;;
59145;SDS011;44928;53.074;6.646;2023-07-29T01:48:40;11.18;;;7.13;;
59145;SDS011;44928;53.074;6.646;2023-07-29T01:51:06;11.20;;;7.25;;
59145;SDS011;44928;53.074;6.646;2023-07-29T01:53:33;10.57;;;5.90;;
59145;SDS011;44928;53.074;6.646;2023-07-29T01:55:59;10.93;;;5.93;;
59145;SDS011;44928;53.074;6.646;2023-07-29T01:58:25;10.90;;;6.05;;
59145;SDS011;44928;53.074;6.646;2023-07-29T02:00:50;12.52;;;7.13;;
59145;SDS011;44928;53.074;6.646;2023-07-29T02:03:16;11.48;;;6.68;;
59145;SDS011;44928;53.074;6.646;2023-07-29T02:05:42;11.13;;;7.38;;
59145;SDS011;44928;53.074;6.646;2023-07-29T02:08:09;12.07;;;7.32;;
59145;SDS011;44928;53.074;6.646;2023-07-29T02:10:35;12.27;;;7.40;;
59145;SDS011;44928;53.074;6.646;2023-07-29T02:13:02;11.23;;;6.45;;
59145;SDS011;44928;53.074;6.646;2023-07-29T02:15:29;11.95;;;7.03;;
59145;SDS011;44928;53.074;6.646;2023-07-29T02:17:55;11.32;;;6.70;;
59145;SDS011;44928;53.074;6.646;2023-07-29T02:20:20;10.88;;;6.78;;
59145;SDS011;44928;53.074;6.646;2023-07-29T02:22:46;11.07;;;6.53;;
59145;SDS011;44928;53.074;6.646;2023-07-29T02:25:13;12.05;;;6.25;;
59145;SDS011;44928;53.074;6.646;2023-07-29T02:27:40;11.15;;;6.65;;
59145;SDS011;44928;53.074;6.646;2023-07-29T02:30:06;12.15;;;7.05;;
59145;SDS011;44928;53.074;6.646;2023-07-29T02:32:34;11.10;;;6.53;;
59145;SDS011;44928;53.074;6.646;2023-07-29T02:35:00;12.02;;;6.65;;
59145;SDS011;44928;53.074;6.646;2023-07-29T02:37:27;9.98;;;6.15;;
59145;SDS011;44928;53.074;6.646;2023-07-29T02:39:53;10.13;;;6.30;;
59145;SDS011;44928;53.074;6.646;2023-07-29T02:42:19;9.60;;;5.90;;
59145;SDS011;44928;53.074;6.646;2023-07-29T02:44:45;12.05;;;6.45;;
59145;SDS011;44928;53.074;6.646;2023-07-29T02:47:10;10.68;;;5.88;;
59145;SDS011;44928;53.074;6.646;2023-07-29T02:49:36;11.15;;;5.97;;
59145;SDS011;44928;53.074;6.646;2023-07-29T02:52:02;10.02;;;5.72;;
59145;SDS011;44928;53.074;6.646;2023-07-29T02:54:28;10.55;;;5.63;;
59145;SDS011;44928;53.074;6.646;2023-07-29T02:56:54;10.52;;;5.53;;
59145;SDS011;44928;53.074;6.646;2023-07-29T02:59:20;10.65;;;5.95;;
59145;SDS011;44928;53.074;6.646;2023-07-29T03:01:46;9.85;;;5.53;;
59145;SDS011;44928;53.074;6.646;2023-07-29T03:04:12;11.80;;;5.68;;
59145;SDS011;44928;53.074;6.646;2023-07-29T03:06:40;9.50;;;5.60;;
59145;SDS011;44928;53.074;6.646;2023-07-29T03:09:07;10.05;;;5.65;;
59145;SDS011;44928;53.074;6.646;2023-07-29T03:11:33;9.88;;;5.38;;
59145;SDS011;44928;53.074;6.646;2023-07-29T03:13:59;9.65;;;5.40;;
59145;SDS011;44928;53.074;6.646;2023-07-29T03:16:25;10.70;;;4.97;;
59145;SDS011;44928;53.074;6.646;2023-07-29T03:18:51;9.35;;;4.95;;
59145;SDS011;44928;53.074;6.646;2023-07-29T03:21:17;9.43;;;4.38;;
59145;SDS011;44928;53.074;6.646;2023-07-29T03:23:43;9.32;;;4.93;;
59145;SDS011;44928;53.074;6.646;2023-07-29T03:26:09;8.63;;;5.00;;
59145;SDS011;44928;53.074;6.646;2023-07-29T03:28:36;9.77;;;4.38;;
59145;SDS011;44928;53.074;6.646;2023-07-29T03:31:05;9.90;;;4.50;;
59145;SDS011;44928;53.074;6.646;2023-07-29T03:33:31;9.63;;;4.40;;
59145;SDS011;44928;53.074;6.646;2023-07-29T03:35:57;8.73;;;4.20;;
59145;SDS011;44928;53.074;6.646;2023-07-29T03:38:23;11.68;;;4.40;;
59145;SDS011;44928;53.074;6.646;2023-07-29T03:40:49;10.32;;;4.47;;
59145;SDS011;44928;53.074;6.646;2023-07-29T03:43:15;8.25;;;4.45;;
59145;SDS011;44928;53.074;6.646;2023-07-29T03:45:41;12.50;;;4.32;;
59145;SDS011;44928;53.074;6.646;2023-07-29T03:48:07;9.98;;;4.50;;
59145;SDS011;44928;53.074;6.646;2023-07-29T03:50:34;10.43;;;3.97;;
59145;SDS011;44928;53.074;6.646;2023-07-29T03:53:01;11.25;;;4.05;;
59145;SDS011;44928;53.074;6.646;2023-07-29T03:55:28;10.02;;;4.20;;
59145;SDS011;44928;53.074;6.646;2023-07-29T03:57:57;8.82;;;3.97;;
59145;SDS011;44928;53.074;6.646;2023-07-29T04:00:24;8.20;;;3.40;;
59145;SDS011;44928;53.074;6.646;2023-07-29T04:02:50;9.20;;;3.63;;
59145;SDS011;44928;53.074;6.646;2023-07-29T04:05:15;9.48;;;3.92;;
59145;SDS011;44928;53.074;6.646;2023-07-29T04:07:42;8.40;;;3.63;;
59145;SDS011;44928;53.074;6.646;2023-07-29T04:10:08;7.80;;;3.70;;
59145;SDS011;44928;53.074;6.646;2023-07-29T04:12:34;9.43;;;3.67;;
59145;SDS011;44928;53.074;6.646;2023-07-29T04:15:00;10.23;;;4.05;;
59145;SDS011;44928;53.074;6.646;2023-07-29T04:17:25;8.93;;;4.18;;
59145;SDS011;44928;53.074;6.646;2023-07-29T04:19:51;9.75;;;3.58;;
59145;SDS011;44928;53.074;6.646;2023-07-29T04:22:17;8.98;;;3.50;;
59145;SDS011;44928;53.074;6.646;2023-07-29T04:24:43;8.45;;;3.53;;
59145;SDS011;44928;53.074;6.646;2023-07-29T04:27:09;9.95;;;3.72;;
59145;SDS011;44928;53.074;6.646;2023-07-29T04:29:35;8.40;;;3.92;;
59145;SDS011;44928;53.074;6.646;2023-07-29T04:32:02;8.88;;;3.65;;
59145;SDS011;44928;53.074;6.646;2023-07-29T04:34:28;9.05;;;3.83;;
59145;SDS011;44928;53.074;6.646;2023-07-29T04:36:54;9.30;;;4.72;;
59145;SDS011;44928;53.074;6.646;2023-07-29T04:39:19;9.43;;;4.05;;
59145;SDS011;44928;53.074;6.646;2023-07-29T04:41:45;9.32;;;4.20;;
59145;SDS011;44928;53.074;6.646;2023-07-29T04:44:11;9.52;;;4.43;;
59145;SDS011;44928;53.074;6.646;2023-07-29T04:46:37;8.90;;;4.22;;
59145;SDS011;44928;53.074;6.646;2023-07-29T04:49:04;9.75;;;4.38;;
59145;SDS011;44928;53.074;6.646;2023-07-29T04:51:30;14.35;;;4.63;;
59145;SDS011;44928;53.074;6.646;2023-07-29T04:53:57;8.63;;;4.25;;
59145;SDS011;44928;53.074;6.646;2023-07-29T04:56:23;11.27;;;4.75;;
59145;SDS011;44928;53.074;6.646;2023-07-29T04:58:49;9.35;;;3.90;;
59145;SDS011;44928;53.074;6.646;2023-07-29T05:01:15;11.07;;;4.10;;
59145;SDS011;44928;53.074;6.646;2023-07-29T05:03:41;9.15;;;4.10;;
59145;SDS011;44928;53.074;6.646;2023-07-29T05:06:07;8.82;;;4.18;;
59145;SDS011;44928;53.074;6.646;2023-07-29T05:08:33;7.50;;;3.85;;
59145;SDS011;44928;53.074;6.646;2023-07-29T05:10:59;9.05;;;3.75;;
59145;SDS011;44928;53.074;6.646;2023-07-29T05:13:24;8.45;;;3.28;;
59145;SDS011;44928;53.074;6.646;2023-07-29T05:15:50;8.88;;;3.92;;
59145;SDS011;44928;53.074;6.646;2023-07-29T05:18:16;8.18;;;3.78;;
59145;SDS011;44928;53.074;6.646;2023-07-29T05:20:42;8.23;;;4.00;;
59145;SDS011;44928;53.074;6.646;2023-07-29T05:23:08;8.23;;;4.13;;
59145;SDS011;44928;53.074;6.646;2023-07-29T05:25:34;9.05;;;3.67;;
59145;SDS011;44928;53.074;6.646;2023-07-29T05:28:00;8.18;;;3.58;;
59145;SDS011;44928;53.074;6.646;2023-07-29T05:30:27;7.97;;;3.95;;
59145;SDS011;44928;53.074;6.646;2023-07-29T05:32:58;8.68;;;3.80;;
59145;SDS011;44928;53.074;6.646;2023-07-29T05:35:25;9.25;;;3.22;;
59145;SDS011;44928;53.074;6.646;2023-07-29T05:37:50;8.23;;;3.40;;
59145;SDS011;44928;53.074;6.646;2023-07-29T05:40:16;8.35;;;3.22;;
59145;SDS011;44928;53.074;6.646;2023-07-29T05:42:42;6.88;;;3.00;;
59145;SDS011;44928;53.074;6.646;2023-07-29T05:45:10;8.18;;;3.58;;
59145;SDS011;44928;53.074;6.646;2023-07-29T05:47:36;10.52;;;3.00;;
59145;SDS011;44928;53.074;6.646;2023-07-29T05:50:04;7.70;;;2.70;;
59145;SDS011;44928;53.074;6.646;2023-07-29T05:52:32;7.50;;;3.00;;
59145;SDS011;44928;53.074;6.646;2023-07-29T05:55:01;6.68;;;2.72;;
59145;SDS011;44928;53.074;6.646;2023-07-29T05:57:27;7.63;;;3.33;;
59145;SDS011;44928;53.074;6.646;2023-07-29T05:59:56;8.80;;;3.05;;
59145;SDS011;44928;53.074;6.646;2023-07-29T06:02:25;8.23;;;3.03;;
59145;SDS011;44928;53.074;6.646;2023-07-29T06:04:53;6.82;;;2.60;;
59145;SDS011;44928;53.074;6.646;2023-07-29T06:07:36;8.45;;;2.97;;
59145;SDS011;44928;53.074;6.646;2023-07-29T06:10:21;8.48;;;3.05;;
59145;SDS011;44928;53.074;6.646;2023-07-29T06:13:08;8.15;;;3.13;;
59145;SDS011;44928;53.074;6.646;2023-07-29T06:15:36;8.20;;;3.08;;
59145;SDS011;44928;53.074;6.646;2023-07-29T06:18:02;8.20;;;2.95;;
59145;SDS011;44928;53.074;6.646;2023-07-29T06:20:28;7.95;;;3.30;;
59145;SDS011;44928;53.074;6.646;2023-07-29T06:22:54;11.15;;;3.72;;
59145;SDS011;44928;53.074;6.646;2023-07-29T06:25:19;7.78;;;2.97;;
59145;SDS011;44928;53.074;6.646;2023-07-29T06:27:45;8.07;;;3.13;;
59145;SDS011;44928;53.074;6.646;2023-07-29T06:30:11;8.20;;;3.08;;
59145;SDS011;44928;53.074;6.646;2023-07-29T06:32:37;7.60;;;3.13;;
59145;SDS011;44928;53.074;6.646;2023-07-29T06:35:03;8.15;;;3.00;;
59145;SDS011;44928;53.074;6.646;2023-07-29T06:37:29;8.52;;;2.80;;
59145;SDS011;44928;53.074;6.646;2023-07-29T06:39:55;7.43;;;2.88;;
59145;SDS011;44928;53.074;6.646;2023-07-29T06:42:21;7.40;;;3.00;;
59145;SDS011;44928;53.074;6.646;2023-07-29T06:44:47;7.85;;;2.90;;
59145;SDS011;44928;53.074;6.646;2023-07-29T06:47:13;9.88;;;3.20;;
59145;SDS011;44928;53.074;6.646;2023-07-29T06:49:38;8.93;;;3.00;;
59145;SDS011;44928;53.074;6.646;2023-07-29T06:52:04;8.60;;;2.95;;
59145;SDS011;44928;53.074;6.646;2023-07-29T06:54:30;9.05;;;3.50;;
59145;SDS011;44928;53.074;6.646;2023-07-29T06:56:56;10.43;;;3.47;;
59145;SDS011;44928;53.074;6.646;2023-07-29T06:59:22;8.75;;;3.03;;
59145;SDS011;44928;53.074;6.646;2023-07-29T07:01:52;9.40;;;3.35;;
59145;SDS011;44928;53.074;6.646;2023-07-29T07:04:18;8.93;;;3.78;;
59145;SDS011;44928;53.074;6.646;2023-07-29T07:06:44;10.70;;;3.42;;
59145;SDS011;44928;53.074;6.646;2023-07-29T07:09:10;8.75;;;3.35;;
59145;SDS011;44928;53.074;6.646;2023-07-29T07:11:35;9.30;;;3.28;;
59145;SDS011;44928;53.074;6.646;2023-07-29T07:14:01;7.53;;;3.30;;
59145;SDS011;44928;53.074;6.646;2023-07-29T07:16:27;11.90;;;4.07;;
59145;SDS011;44928;53.074;6.646;2023-07-29T07:18:55;10.73;;;4.13;;
59145;SDS011;44928;53.074;6.646;2023-07-29T07:21:21;11.75;;;4.13;;
59145;SDS011;44928;53.074;6.646;2023-07-29T07:23:49;10.13;;;4.55;;
59145;SDS011;44928;53.074;6.646;2023-07-29T07:26:15;10.77;;;4.20;;
59145;SDS011;44928;53.074;6.646;2023-07-29T07:28:41;11.32;;;4.40;;
59145;SDS011;44928;53.074;6.646;2023-07-29T07:31:07;10.70;;;4.15;;
59145;SDS011;44928;53.074;6.646;2023-07-29T07:33:32;11.68;;;4.93;;
59145;SDS011;44928;53.074;6.646;2023-07-29T07:35:58;9.98;;;5.03;;
59145;SDS011;44928;53.074;6.646;2023-07-29T07:38:24;11.43;;;5.13;;
59145;SDS011;44928;53.074;6.646;2023-07-29T07:40:54;13.40;;;4.95;;
59145;SDS011;44928;53.074;6.646;2023-07-29T07:45:46;10.00;;;4.65;;
59145;SDS011;44928;53.074;6.646;2023-07-29T07:48:12;11.25;;;4.97;;
59145;SDS011;44928;53.074;6.646;2023-07-29T07:50:38;12.15;;;4.82;;
59145;SDS011;44928;53.074;6.646;2023-07-29T07:53:05;11.65;;;5.07;;
59145;SDS011;44928;53.074;6.646;2023-07-29T07:55:30;10.25;;;4.85;;
59145;SDS011;44928;53.074;6.646;2023-07-29T07:57:56;12.52;;;5.32;;
59145;SDS011;44928;53.074;6.646;2023-07-29T08:00:22;11.73;;;5.10;;
59145;SDS011;44928;53.074;6.646;2023-07-29T08:02:48;11.73;;;4.60;;
59145;SDS011;44928;53.074;6.646;2023-07-29T08:05:14;10.32;;;4.90;;
59145;SDS011;44928;53.074;6.646;2023-07-29T08:07:39;10.57;;;4.72;;
59145;SDS011;44928;53.074;6.646;2023-07-29T08:10:05;11.43;;;4.65;;
59145;SDS011;44928;53.074;6.646;2023-07-29T08:12:32;12.60;;;5.13;;
59145;SDS011;44928;53.074;6.646;2023-07-29T08:14:57;13.00;;;4.50;;
59145;SDS011;44928;53.074;6.646;2023-07-29T08:17:23;9.88;;;4.78;;
59145;SDS011;44928;53.074;6.646;2023-07-29T08:19:49;10.90;;;4.20;;
59145;SDS011;44928;53.074;6.646;2023-07-29T08:22:15;8.63;;;4.00;;
59145;SDS011;44928;53.074;6.646;2023-07-29T08:24:42;8.90;;;3.78;;
59145;SDS011;44928;53.074;6.646;2023-07-29T08:27:08;10.63;;;4.43;;
59145;SDS011;44928;53.074;6.646;2023-07-29T08:29:34;9.63;;;3.80;;
59145;SDS011;44928;53.074;6.646;2023-07-29T08:32:00;8.20;;;3.40;;
59145;SDS011;44928;53.074;6.646;2023-07-29T08:34:25;10.65;;;3.25;;
59145;SDS011;44928;53.074;6.646;2023-07-29T08:36:51;10.93;;;3.40;;
59145;SDS011;44928;53.074;6.646;2023-07-29T08:39:17;8.05;;;2.78;;
59145;SDS011;44928;53.074;6.646;2023-07-29T08:44:31;8.80;;;2.72;;
59145;SDS011;44928;53.074;6.646;2023-07-29T08:47:02;7.82;;;3.08;;
59145;SDS011;44928;53.074;6.646;2023-07-29T08:49:28;9.07;;;2.78;;
59145;SDS011;44928;53.074;6.646;2023-07-29T08:51:55;10.50;;;3.70;;
59145;SDS011;44928;53.074;6.646;2023-07-29T08:54:23;7.57;;;2.80;;
59145;SDS011;44928;53.074;6.646;2023-07-29T08:56:49;9.77;;;3.25;;
59145;SDS011;44928;53.074;6.646;2023-07-29T08:59:15;7.90;;;3.00;;
59145;SDS011;44928;53.074;6.646;2023-07-29T09:01:44;7.90;;;3.10;;
59145;SDS011;44928;53.074;6.646;2023-07-29T09:04:12;6.63;;;2.42;;
59145;SDS011;44928;53.074;6.646;2023-07-29T09:06:37;7.80;;;2.60;;
59145;SDS011;44928;53.074;6.646;2023-07-29T09:09:05;7.05;;;2.75;;
59145;SDS011;44928;53.074;6.646;2023-07-29T09:11:33;6.70;;;2.70;;
59145;SDS011;44928;53.074;6.646;2023-07-29T09:13:59;7.50;;;2.55;;
59145;SDS011;44928;53.074;6.646;2023-07-29T09:16:25;7.65;;;2.90;;
59145;SDS011;44928;53.074;6.646;2023-07-29T09:18:51;7.00;;;2.65;;
59145;SDS011;44928;53.074;6.646;2023-07-29T09:21:24;8.63;;;2.70;;
59145;SDS011;44928;53.074;6.646;2023-07-29T09:23:51;9.13;;;2.30;;
59145;SDS011;44928;53.074;6.646;2023-07-29T09:26:27;6.97;;;2.75;;
59145;SDS011;44928;53.074;6.646;2023-07-29T09:28:54;9.10;;;2.63;;
59145;SDS011;44928;53.074;6.646;2023-07-29T09:31:24;7.15;;;2.70;;
59145;SDS011;44928;53.074;6.646;2023-07-29T09:33:57;7.15;;;2.65;;
59145;SDS011;44928;53.074;6.646;2023-07-29T09:36:24;6.85;;;2.35;;
59145;SDS011;44928;53.074;6.646;2023-07-29T09:38:52;8.25;;;2.05;;
59145;SDS011;44928;53.074;6.646;2023-07-29T09:41:19;8.02;;;2.63;;
59145;SDS011;44928;53.074;6.646;2023-07-29T09:43:48;7.22;;;2.05;;
59145;SDS011;44928;53.074;6.646;2023-07-29T09:46:24;7.50;;;2.38;;
59145;SDS011;44928;53.074;6.646;2023-07-29T09:48:53;6.68;;;2.28;;
59145;SDS011;44928;53.074;6.646;2023-07-29T09:51:21;7.63;;;2.60;;
59145;SDS011;44928;53.074;6.646;2023-07-29T09:53:47;7.57;;;2.05;;
59145;SDS011;44928;53.074;6.646;2023-07-29T09:56:15;6.78;;;1.90;;
59145;SDS011;44928;53.074;6.646;2023-07-29T09:58:44;7.20;;;1.98;;
59145;SDS011;44928;53.074;6.646;2023-07-29T10:01:13;6.68;;;1.90;;
59145;SDS011;44928;53.074;6.646;2023-07-29T10:03:39;5.72;;;1.88;;
59145;SDS011;44928;53.074;6.646;2023-07-29T10:06:06;6.05;;;2.00;;
59145;SDS011;44928;53.074;6.646;2023-07-29T10:08:33;6.93;;;2.15;;
59145;SDS011;44928;53.074;6.646;2023-07-29T10:11:06;5.65;;;1.90;;
59145;SDS011;44928;53.074;6.646;2023-07-29T10:13:33;6.20;;;1.88;;
59145;SDS011;44928;53.074;6.646;2023-07-29T10:16:00;6.32;;;1.80;;
59145;SDS011;44928;53.074;6.646;2023-07-29T10:18:29;6.43;;;1.90;;
59145;SDS011;44928;53.074;6.646;2023-07-29T10:20:56;5.75;;;2.00;;
59145;SDS011;44928;53.074;6.646;2023-07-29T10:23:24;5.13;;;2.00;;
59145;SDS011;44928;53.074;6.646;2023-07-29T10:25:57;10.90;;;2.53;;
59145;SDS011;44928;53.074;6.646;2023-07-29T10:28:30;7.13;;;2.10;;
59145;SDS011;44928;53.074;6.646;2023-07-29T10:30:57;7.43;;;2.10;;
59145;SDS011;44928;53.074;6.646;2023-07-29T10:33:24;6.68;;;2.03;;
59145;SDS011;44928;53.074;6.646;2023-07-29T10:35:50;7.63;;;2.28;;
59145;SDS011;44928;53.074;6.646;2023-07-29T10:38:18;7.60;;;2.50;;
59145;SDS011;44928;53.074;6.646;2023-07-29T10:40:48;6.82;;;2.28;;
59145;SDS011;44928;53.074;6.646;2023-07-29T10:43:34;5.82;;;1.77;;
59145;SDS011;44928;53.074;6.646;2023-07-29T10:46:16;11.10;;;2.10;;
59145;SDS011;44928;53.074;6.646;2023-07-29T10:48:53;6.05;;;1.98;;
59145;SDS011;44928;53.074;6.646;2023-07-29T10:51:26;8.18;;;1.80;;
59145;SDS011;44928;53.074;6.646;2023-07-29T10:54:03;6.38;;;1.90;;
59145;SDS011;44928;53.074;6.646;2023-07-29T10:56:36;6.70;;;1.65;;
59145;SDS011;44928;53.074;6.646;2023-07-29T11:01:38;3.90;;;1.50;;
59145;SDS011;44928;53.074;6.646;2023-07-29T11:09:52;5.57;;;1.50;;
59145;SDS011;44928;53.074;6.646;2023-07-29T11:12:36;6.07;;;1.52;;
59145;SDS011;44928;53.074;6.646;2023-07-29T11:17:57;8.60;;;1.67;;
59145;SDS011;44928;53.074;6.646;2023-07-29T11:20:26;8.27;;;1.40;;
59145;SDS011;44928;53.074;6.646;2023-07-29T11:22:57;8.05;;;1.95;;
59145;SDS011;44928;53.074;6.646;2023-07-29T11:25:24;3.95;;;1.20;;
59145;SDS011;44928;53.074;6.646;2023-07-29T11:27:51;5.53;;;1.25;;
59145;SDS011;44928;53.074;6.646;2023-07-29T11:30:18;5.93;;;1.40;;
59145;SDS011;44928;53.074;6.646;2023-07-29T11:32:44;7.95;;;1.50;;
59145;SDS011;44928;53.074;6.646;2023-07-29T11:35:12;4.38;;;1.27;;
59145;SDS011;44928;53.074;6.646;2023-07-29T11:37:43;6.90;;;1.70;;
59145;SDS011;44928;53.074;6.646;2023-07-29T11:40:13;5.50;;;1.45;;
59145;SDS011;44928;53.074;6.646;2023-07-29T11:42:40;7.78;;;1.77;;
59145;SDS011;44928;53.074;6.646;2023-07-29T11:45:06;7.03;;;1.90;;
59145;SDS011;44928;53.074;6.646;2023-07-29T11:47:33;6.53;;;1.80;;
59145;SDS011;44928;53.074;6.646;2023-07-29T11:50:03;7.30;;;1.83;;
59145;SDS011;44928;53.074;6.646;2023-07-29T11:52:34;7.82;;;1.58;;
59145;SDS011;44928;53.074;6.646;2023-07-29T11:55:04;7.63;;;1.80;;
59145;SDS011;44928;53.074;6.646;2023-07-29T11:57:31;9.00;;;1.98;;
59145;SDS011;44928;53.074;6.646;2023-07-29T12:00:01;7.28;;;1.98;;
59145;SDS011;44928;53.074;6.646;2023-07-29T12:02:29;7.47;;;1.98;;
59145;SDS011;44928;53.074;6.646;2023-07-29T12:04:56;6.90;;;2.03;;
59145;SDS011;44928;53.074;6.646;2023-07-29T12:07:22;4.35;;;1.60;;
59145;SDS011;44928;53.074;6.646;2023-07-29T12:09:48;7.45;;;1.90;;
59145;SDS011;44928;53.074;6.646;2023-07-29T12:12:15;6.72;;;2.13;;
59145;SDS011;44928;53.074;6.646;2023-07-29T12:14:47;10.55;;;3.03;;
59145;SDS011;44928;53.074;6.646;2023-07-29T12:17:14;12.25;;;2.63;;
59145;SDS011;44928;53.074;6.646;2023-07-29T12:19:40;10.15;;;3.30;;
59145;SDS011;44928;53.074;6.646;2023-07-29T12:22:08;8.05;;;2.45;;
59145;SDS011;44928;53.074;6.646;2023-07-29T12:24:36;8.30;;;2.70;;
59145;SDS011;44928;53.074;6.646;2023-07-29T12:27:04;9.27;;;2.83;;
59145;SDS011;44928;53.074;6.646;2023-07-29T12:29:31;8.35;;;2.58;;
59145;SDS011;44928;53.074;6.646;2023-07-29T12:31:58;9.38;;;2.60;;
59145;SDS011;44928;53.074;6.646;2023-07-29T12:34:26;8.57;;;2.67;;
59145;SDS011;44928;53.074;6.646;2023-07-29T12:36:54;7.88;;;2.50;;
59145;SDS011;44928;53.074;6.646;2023-07-29T12:39:27;6.82;;;2.30;;
59145;SDS011;44928;53.074;6.646;2023-07-29T12:41:55;6.50;;;1.98;;
59145;SDS011;44928;53.074;6.646;2023-07-29T12:44:24;9.10;;;2.60;;
59145;SDS011;44928;53.074;6.646;2023-07-29T12:46:51;7.75;;;2.50;;
59145;SDS011;44928;53.074;6.646;2023-07-29T12:49:17;7.05;;;2.40;;
59145;SDS011;44928;53.074;6.646;2023-07-29T12:51:43;7.50;;;2.42;;
59145;SDS011;44928;53.074;6.646;2023-07-29T12:54:09;7.70;;;2.47;;
59145;SDS011;44928;53.074;6.646;2023-07-29T12:56:35;9.10;;;2.30;;
59145;SDS011;44928;53.074;6.646;2023-07-29T12:59:01;5.72;;;2.00;;
59145;SDS011;44928;53.074;6.646;2023-07-29T13:01:28;7.38;;;1.80;;
59145;SDS011;44928;53.074;6.646;2023-07-29T13:03:54;7.30;;;2.17;;
59145;SDS011;44928;53.074;6.646;2023-07-29T13:06:21;5.65;;;1.90;;
59145;SDS011;44928;53.074;6.646;2023-07-29T13:08:47;7.30;;;2.10;;
59145;SDS011;44928;53.074;6.646;2023-07-29T13:11:16;8.02;;;2.13;;
59145;SDS011;44928;53.074;6.646;2023-07-29T13:13:43;6.68;;;2.00;;
59145;SDS011;44928;53.074;6.646;2023-07-29T13:16:10;7.63;;;2.22;;
59145;SDS011;44928;53.074;6.646;2023-07-29T13:18:37;6.57;;;2.05;;
59145;SDS011;44928;53.074;6.646;2023-07-29T13:21:02;9.77;;;2.53;;
59145;SDS011;44928;53.074;6.646;2023-07-29T13:23:28;7.60;;;2.35;;
59145;SDS011;44928;53.074;6.646;2023-07-29T13:25:55;9.10;;;2.30;;
59145;SDS011;44928;53.074;6.646;2023-07-29T13:28:21;7.45;;;1.90;;
59145;SDS011;44928;53.074;6.646;2023-07-29T13:30:47;7.15;;;2.05;;
59145;SDS011;44928;53.074;6.646;2023-07-29T13:33:13;5.93;;;1.92;;
59145;SDS011;44928;53.074;6.646;2023-07-29T13:35:39;6.88;;;1.67;;
59145;SDS011;44928;53.074;6.646;2023-07-29T13:38:05;6.28;;;1.90;;
59145;SDS011;44928;53.074;6.646;2023-07-29T13:40:31;6.78;;;1.92;;
59145;SDS011;44928;53.074;6.646;2023-07-29T13:42:57;3.75;;;1.20;;
59145;SDS011;44928;53.074;6.646;2023-07-29T13:45:23;3.97;;;1.10;;
59145;SDS011;44928;53.074;6.646;2023-07-29T13:47:49;3.72;;;1.00;;
59145;SDS011;44928;53.074;6.646;2023-07-29T13:50:15;3.78;;;1.15;;
59145;SDS011;44928;53.074;6.646;2023-07-29T13:52:44;2.53;;;1.10;;
59145;SDS011;44928;53.074;6.646;2023-07-29T13:55:10;4.75;;;1.10;;
59145;SDS011;44928;53.074;6.646;2023-07-29T13:57:37;4.95;;;1.17;;
59145;SDS011;44928;53.074;6.646;2023-07-29T14:00:05;3.33;;;1.15;;
59145;SDS011;44928;53.074;6.646;2023-07-29T14:02:31;5.25;;;1.20;;
59145;SDS011;44928;53.074;6.646;2023-07-29T14:04:57;4.47;;;1.10;;
59145;SDS011;44928;53.074;6.646;2023-07-29T14:07:23;3.25;;;1.10;;
59145;SDS011;44928;53.074;6.646;2023-07-29T14:09:48;3.97;;;1.10;;
59145;SDS011;44928;53.074;6.646;2023-07-29T14:12:15;3.45;;;1.30;;
59145;SDS011;44928;53.074;6.646;2023-07-29T14:14:41;6.38;;;1.17;;
59145;SDS011;44928;53.074;6.646;2023-07-29T14:17:07;3.78;;;1.20;;
59145;SDS011;44928;53.074;6.646;2023-07-29T14:19:38;4.00;;;1.30;;
59145;SDS011;44928;53.074;6.646;2023-07-29T14:22:04;5.47;;;1.40;;
59145;SDS011;44928;53.074;6.646;2023-07-29T14:24:30;5.03;;;1.35;;
59145;SDS011;44928;53.074;6.646;2023-07-29T14:26:56;4.68;;;1.42;;
59145;SDS011;44928;53.074;6.646;2023-07-29T14:29:22;3.13;;;1.02;;
59145;SDS011;44928;53.074;6.646;2023-07-29T14:31:48;4.45;;;1.13;;
59145;SDS011;44928;53.074;6.646;2023-07-29T14:34:14;7.32;;;1.60;;
59145;SDS011;44928;53.074;6.646;2023-07-29T14:36:40;6.47;;;1.92;;
59145;SDS011;44928;53.074;6.646;2023-07-29T14:39:05;4.90;;;1.20;;
59145;SDS011;44928;53.074;6.646;2023-07-29T14:41:31;7.00;;;1.77;;
59145;SDS011;44928;53.074;6.646;2023-07-29T14:43:57;3.55;;;1.23;;
59145;SDS011;44928;53.074;6.646;2023-07-29T14:46:23;3.97;;;1.20;;
59145;SDS011;44928;53.074;6.646;2023-07-29T14:48:49;3.58;;;1.10;;
59145;SDS011;44928;53.074;6.646;2023-07-29T14:51:15;6.90;;;1.63;;
59145;SDS011;44928;53.074;6.646;2023-07-29T14:53:40;3.58;;;0.98;;
59145;SDS011;44928;53.074;6.646;2023-07-29T14:56:06;5.05;;;1.40;;
59145;SDS011;44928;53.074;6.646;2023-07-29T14:58:32;4.35;;;1.30;;
59145;SDS011;44928;53.074;6.646;2023-07-29T15:00:58;4.40;;;1.20;;
59145;SDS011;44928;53.074;6.646;2023-07-29T15:03:24;6.03;;;1.30;;
59145;SDS011;44928;53.074;6.646;2023-07-29T15:05:50;4.18;;;1.13;;
59145;SDS011;44928;53.074;6.646;2023-07-29T15:08:16;2.63;;;0.90;;